Time;durP1;ratioP1;P1;durP2;ratioP2;P2;SDS_P1;SDS_P2;PMS_P1;PMS_P2;Temp;Humidity;BMP_temperature;BMP_pressure;BME280_temperature;BME280_humidity;BME280_pressure;Samples;Min_cycle;Max_cycle;Signal;HPM_P1;HPM_P2
2022/05/02 00:05:05;;;;;;;11.63;5.50;;;;;;;12.55;59.25;101145.73;5163487;57;1141064;-71
2022/05/02 00:10:11;;;;;;;6.70;5.20;;;;;;;12.49;59.35;101135.61;5163530;57;1141122;-71
2022/05/02 00:15:17;;;;;;;12.80;5.90;;;;;;;12.39;59.64;101136.77;5163603;57;1138952;-71
2022/05/02 00:20:31;;;;;;;8.00;4.80;;;;;;;12.33;59.70;101134.59;5163573;57;1141273;-71
2022/05/02 00:25:38;;;;;;;8.37;5.13;;;;;;;12.29;60.04;101144.58;5163464;57;1138887;-71
2022/05/02 00:30:44;;;;;;;11.60;6.60;;;;;;;12.32;60.13;101154.12;5163906;57;1138971;-71
2022/05/02 00:35:50;;;;;;;8.93;5.13;;;;;;;12.37;60.16;101156.44;5196284;56;1141093;-71
2022/05/02 00:40:56;;;;;;;11.03;5.33;;;;;;;12.29;60.02;101155.19;5248565;56;1139083;-71
2022/05/02 00:46:02;;;;;;;9.07;5.67;;;;;;;12.20;60.09;101157.21;5248407;56;1141334;-72
2022/05/02 00:51:08;;;;;;;18.10;5.43;;;;;;;12.18;60.27;101151.65;5248542;56;1138921;-72
2022/05/02 00:56:14;;;;;;;9.43;5.30;;;;;;;12.16;59.93;101162.37;5248454;56;1141213;-72
2022/05/02 01:01:19;;;;;;;6.73;4.73;;;;;;;12.10;59.58;101151.35;5248398;56;1139010;-71
2022/05/02 01:11:48;;;;;;;;;;;;;;;11.91;59.41;101163.34;5252376;56;1141320;-72
2022/05/02 01:16:54;;;;;;;6.80;5.03;;;;;;;11.83;59.39;101159.53;5251239;56;974518;-71
2022/05/02 01:22:00;;;;;;;8.10;5.03;;;;;;;11.71;59.67;101165.22;5248543;56;1134829;-71
2022/05/02 01:27:08;;;;;;;9.73;5.80;;;;;;;11.64;59.87;101158.17;5248471;56;1137214;-71
2022/05/02 01:32:16;;;;;;;9.47;5.20;;;;;;;11.60;60.01;101158.05;5248265;56;1137281;-71
2022/05/02 01:37:21;;;;;;;15.37;5.73;;;;;;;11.47;60.23;101161.17;5103500;57;1137163;-71
2022/05/02 01:42:27;;;;;;;11.37;6.33;;;;;;;11.43;60.50;101157.55;5161644;57;1138968;-71
2022/05/02 01:47:34;;;;;;;7.20;5.30;;;;;;;11.41;60.66;101152.36;5161597;56;1139030;-73
2022/05/02 01:52:39;;;;;;;12.47;5.40;;;;;;;11.39;60.63;101154.27;5161658;57;1137057;-71
2022/05/02 01:57:47;;;;;;;8.57;5.17;;;;;;;11.29;60.51;101153.23;5161661;57;1139013;-71
2022/05/02 02:02:52;;;;;;;13.07;6.03;;;;;;;11.31;60.99;101147.80;5161596;57;1136963;-72
2022/05/02 02:08:01;;;;;;;10.60;5.90;;;;;;;11.37;61.02;101140.75;5161482;57;1138886;-72
2022/05/02 02:13:07;;;;;;;8.23;5.27;;;;;;;11.25;60.41;101138.03;5161594;57;1139233;-72
2022/05/02 02:18:14;;;;;;;8.77;4.80;;;;;;;11.11;60.20;101134.66;5161557;57;1136934;-72
2022/05/02 02:23:24;;;;;;;9.63;5.60;;;;;;;11.04;60.18;101134.70;5161596;57;1136928;-72
2022/05/02 02:28:30;;;;;;;11.53;5.42;;;;;;;10.91;60.15;101128.09;5161297;57;1137202;-72
2022/05/02 02:33:37;;;;;;;6.17;4.27;;;;;;;10.84;60.29;101126.84;5161523;57;1139274;-72
2022/05/02 02:38:42;;;;;;;8.13;4.90;;;;;;;10.83;60.47;101126.47;5161583;57;1134756;-72
2022/05/02 02:43:49;;;;;;;8.93;4.60;;;;;;;10.83;60.30;101111.44;5161169;57;1163360;-72
2022/05/02 02:48:54;;;;;;;12.30;5.17;;;;;;;10.76;60.27;101108.83;5161638;57;1139007;-72
2022/05/02 02:54:01;;;;;;;6.57;4.60;;;;;;;10.77;60.32;101106.56;5161592;57;1141031;-72
2022/05/02 02:59:06;;;;;;;5.70;4.53;;;;;;;10.77;60.14;101109.20;5161625;57;1139084;-72
2022/05/02 03:09:37;;;;;;;16.47;5.80;;;;;;;10.68;60.06;101111.65;5161391;57;1141100;-71
2022/05/02 03:14:43;;;;;;;10.40;5.57;;;;;;;10.65;60.36;101111.37;5160600;57;1141151;-71
2022/05/02 03:19:49;;;;;;;12.00;6.30;;;;;;;10.62;60.13;101116.88;5161382;57;1141062;-72
2022/05/02 03:24:55;;;;;;;18.47;7.33;;;;;;;10.62;60.38;101116.02;5161392;57;1141105;-73
2022/05/02 03:30:00;;;;;;;14.53;6.13;;;;;;;10.48;60.15;101120.45;5161227;57;1141065;-71
2022/05/02 03:35:08;;;;;;;16.10;6.30;;;;;;;10.46;60.60;101114.89;5161268;56;1141249;-72
2022/05/02 03:40:13;;;;;;;17.47;6.43;;;;;;;10.39;60.56;101110.98;5161422;57;1141313;-72
2022/05/02 03:45:19;;;;;;;30.72;8.23;;;;;;;10.37;60.69;101106.27;5161169;57;1141171;-72
2022/05/02 03:50:25;;;;;;;14.10;5.83;;;;;;;10.40;61.00;101096.78;5161375;56;1141092;-72
2022/05/02 03:55:31;;;;;;;9.43;4.77;;;;;;;10.37;60.95;101089.94;5161377;57;1141104;-72
2022/05/02 04:00:37;;;;;;;7.47;5.10;;;;;;;10.37;60.87;101086.44;5161388;56;1138969;-72
2022/05/02 04:05:43;;;;;;;12.97;4.73;;;;;;;10.27;60.90;101091.48;5161806;56;1138979;-72
2022/05/02 04:10:49;;;;;;;14.03;5.17;;;;;;;10.17;60.84;101104.92;5162279;56;1141202;-71
2022/05/02 04:15:55;;;;;;;20.00;7.17;;;;;;;10.05;61.18;101106.59;5161997;56;1141109;-72
2022/05/02 04:21:00;;;;;;;11.07;5.93;;;;;;;10.02;61.49;101113.86;5162030;57;1141079;-72
2022/05/02 04:26:07;;;;;;;25.23;10.97;;;;;;;9.88;61.51;101114.30;5190166;56;1141071;-72
2022/05/02 04:31:13;;;;;;;20.00;7.20;;;;;;;9.97;62.18;101115.95;5197176;56;1141042;-72
2022/05/02 04:36:18;;;;;;;16.97;7.03;;;;;;;10.03;62.32;101115.56;5202546;56;1139052;-71
2022/05/02 04:41:24;;;;;;;17.57;6.33;;;;;;;10.04;62.52;101122.54;5221379;56;1141291;-73
2022/05/02 04:46:30;;;;;;;13.43;5.73;;;;;;;10.11;62.73;101127.30;5236426;56;1141094;-71
2022/05/02 04:51:36;;;;;;;35.67;6.10;;;;;;;10.17;62.56;101123.42;5162080;56;1141236;-73
2022/05/02 04:56:42;;;;;;;15.00;5.10;;;;;;;10.15;62.30;101120.03;5161665;57;1141174;-71
2022/05/02 05:01:48;;;;;;;10.23;5.53;;;;;;;10.10;62.59;101130.90;5199348;56;1141062;-73
2022/05/02 05:06:54;;;;;;;10.87;5.40;;;;;;;10.14;62.98;101131.55;5206884;56;1141057;-72
2022/05/02 05:12:19;;;;;;;22.73;6.63;;;;;;;10.12;62.71;101137.41;5161765;57;1141125;-72
2022/05/02 05:18:18;;;;;;;10.20;6.33;;;;;;;10.18;62.86;101135.69;5167582;56;1141197;-71
2022/05/02 05:24:05;;;;;;;13.70;7.20;;;;;;;10.17;62.86;101142.77;5201528;56;1139030;-72
2022/05/02 05:29:48;;;;;;;10.63;5.77;;;;;;;10.16;63.34;101146.84;5199798;56;1138805;-72
2022/05/02 05:35:09;;;;;;;;;;;;;;;10.11;63.86;101139.20;5210258;56;1141335;-72
2022/05/02 05:40:39;;;;;;;30.10;6.37;;;;;;;10.07;63.70;101137.73;5203400;56;976593;-71
2022/05/02 05:46:08;;;;;;;12.63;6.60;;;;;;;10.15;64.50;101133.24;5193100;56;1138967;-73
2022/05/02 05:51:38;;;;;;;9.63;5.63;;;;;;;10.31;64.59;101134.44;5234421;56;1141051;-72
2022/05/02 05:57:06;;;;;;;13.90;6.37;;;;;;;10.38;64.87;101122.52;5143190;56;1139180;-73
2022/05/02 06:02:24;;;;;;;12.40;6.60;;;;;;;10.46;64.34;101121.50;4931271;56;1149350;-72
2022/05/02 06:07:31;;;;;;;11.53;6.60;;;;;;;10.56;65.32;101119.45;4619973;56;1142777;-72
2022/05/02 06:12:39;;;;;;;11.12;7.37;;;;;;;10.84;65.63;101123.72;4633578;55;1244208;-73
2022/05/02 06:23:14;;;;;;;10.48;6.22;;;;;;;11.35;64.76;101130.27;4593256;56;1141034;-72
2022/05/02 06:28:23;;;;;;;13.87;6.40;;;;;;;11.33;63.82;101128.67;4607173;56;1141035;-72
2022/05/02 06:33:30;;;;;;;15.60;7.37;;;;;;;11.28;64.13;101129.03;4591885;56;1141081;-72
2022/05/02 06:39:06;;;;;;;17.07;6.50;;;;;;;11.39;65.25;101138.37;4570880;56;1140969;-71
2022/05/02 06:44:45;;;;;;;6.35;5.25;;;;;;;11.46;64.29;101140.09;4558551;57;1141000;-72
2022/05/02 06:49:55;;;;;;;14.80;6.13;;;;;;;11.50;64.31;101133.62;4537933;57;1138916;-71
2022/05/02 06:55:43;;;;;;;14.58;6.72;;;;;;;11.60;64.53;101139.50;4652860;57;1141289;-71
2022/05/02 07:01:07;;;;;;;11.37;7.03;;;;;;;11.74;64.85;101139.83;4478876;58;1186794;-72
2022/05/02 07:07:08;;;;;;;20.32;6.78;;;;;;;11.84;64.50;101124.97;4510599;57;1141106;-72
2022/05/02 07:12:23;;;;;;;18.67;7.03;;;;;;;11.96;64.49;101130.69;4626238;57;1142685;-71
2022/05/02 07:17:54;;;;;;;14.25;6.50;;;;;;;12.16;64.62;101127.89;4615728;57;1141048;-73
2022/05/02 07:23:42;;;;;;;68.90;11.30;;;;;;;12.30;64.77;101129.03;4596761;57;1150659;-72
2022/05/02 07:28:53;;;;;;;30.17;7.47;;;;;;;12.35;64.35;101130.02;4839625;58;1142711;-72
2022/05/02 07:34:02;;;;;;;26.37;7.33;;;;;;;12.50;64.74;101122.71;5044663;57;1139294;-71
2022/05/02 07:39:08;;;;;;;15.83;7.47;;;;;;;12.76;65.12;101118.90;4980098;58;1138876;-71
2022/05/02 07:44:15;;;;;;;11.70;7.67;;;;;;;13.07;65.29;101116.52;5046357;57;1139109;-72
2022/05/02 07:49:26;;;;;;;18.33;7.60;;;;;;;13.26;64.44;101118.13;5116894;56;1139028;-71
2022/05/02 07:54:36;;;;;;;11.73;6.90;;;;;;;13.36;63.26;101115.93;5160902;56;1139270;-71
2022/05/02 07:59:44;;;;;;;12.23;6.33;;;;;;;13.47;63.14;101120.38;5113210;57;1139063;-71
2022/05/02 08:04:52;;;;;;;8.50;5.93;;;;;;;13.73;62.67;101117.81;5155452;57;1137113;-71
2022/05/02 08:10:04;;;;;;;12.63;6.40;;;;;;;14.07;62.03;101115.02;5156636;57;1139043;-72
2022/05/02 08:15:47;;;;;;;9.93;6.97;;;;;;;14.34;60.97;101113.23;4903191;59;1141198;-72
2022/05/02 08:21:15;;;;;;;12.03;6.13;;;;;;;14.60;60.80;101106.58;4984422;58;1138957;-72
2022/05/02 08:32:45;;;;;;;7.87;5.73;;;;;;;14.97;59.37;101100.77;5035906;57;1141062;-72
2022/05/02 08:38:21;;;;;;;14.87;6.33;;;;;;;15.06;59.33;101087.97;5043214;58;1138986;-71
2022/05/02 08:43:34;;;;;;;27.07;12.67;;;;;;;15.35;58.99;101087.58;5149788;57;1139256;-72
2022/05/02 08:49:36;;;;;;;5.12;3.83;;;;;;;15.44;55.25;101086.74;5066794;58;1141097;-72
2022/05/02 08:54:54;;;;;;;2.80;2.40;;;;;;;15.45;53.76;101088.44;5074848;58;1136948;-72
2022/05/02 09:00:14;;;;;;;6.67;3.63;;;;;;;15.76;54.12;101071.05;5147555;57;1134867;-72
2022/05/02 09:06:02;;;;;;;11.80;4.30;;;;;;;16.00;53.56;101059.98;5154801;57;1138903;-72
2022/05/02 09:11:33;;;;;;;9.00;4.10;;;;;;;16.27;54.56;101064.10;5146952;56;1140969;-71
2022/05/02 09:17:15;;;;;;;4.60;3.87;;;;;;;16.71;54.36;101062.63;5161336;57;1138906;-72
2022/05/02 09:22:58;;;;;;;5.07;3.83;;;;;;;16.95;52.86;101057.30;5161420;57;1139027;-71
2022/05/02 09:28:22;;;;;;;5.73;3.40;;;;;;;17.13;52.97;101059.51;5162614;57;1138957;-72
2022/05/02 09:33:52;;;;;;;12.03;4.15;;;;;;;17.07;49.44;101058.78;5163938;57;1138989;-72
2022/05/02 09:39:08;;;;;;;12.60;5.03;;;;;;;17.02;49.73;101049.02;4941772;58;1139093;-72
2022/05/02 09:50:34;;;;;;;10.77;4.10;;;;;;;17.05;47.20;101036.20;5149141;56;1141164;-72
2022/05/02 10:01:29;;;;;;;5.97;3.80;;;;;;;17.69;48.12;101019.73;5076503;58;1139039;-72
2022/05/02 10:06:45;;;;;;;5.17;3.00;;;;;;;17.95;46.44;101011.76;5076685;58;1138972;-72
2022/05/02 10:12:21;;;;;;;5.73;2.73;;;;;;;18.11;47.69;101003.86;5070490;57;1139555;-72
2022/05/02 10:17:48;;;;;;;6.13;3.20;;;;;;;18.25;44.54;100999.28;5105917;57;1139097;-71
2022/05/02 10:23:16;;;;;;;10.40;3.30;;;;;;;18.21;46.12;100992.05;5107264;57;1139030;-73
2022/05/02 10:29:02;;;;;;;7.00;2.90;;;;;;;18.51;46.96;100985.87;4953430;58;1141147;-71
2022/05/02 10:34:11;;;;;;;3.22;2.92;;;;;;;18.55;45.28;100987.24;4983756;58;1136978;-71
2022/05/02 10:39:52;;;;;;;12.60;4.10;;;;;;;18.51;41.59;100978.67;4966458;59;1136953;-71
2022/05/02 10:45:08;;;;;;;6.80;2.90;;;;;;;18.29;43.08;100968.52;4979899;58;1139151;-72
2022/05/02 10:50:37;;;;;;;4.25;3.42;;;;;;;18.52;43.30;100974.16;4986474;58;1137114;-72
2022/05/02 10:56:24;;;;;;;5.53;3.23;;;;;;;18.78;43.38;100962.11;4965604;58;1138971;-72
2022/05/02 11:01:59;;;;;;;3.43;3.13;;;;;;;18.77;42.79;100957.25;4967396;59;1139217;-73
2022/05/02 11:07:30;;;;;;;4.23;3.67;;;;;;;18.86;40.42;100962.13;4996331;58;1139387;-73
2022/05/02 11:13:02;;;;;;;4.83;2.90;;;;;;;18.71;41.63;100957.88;5039015;57;1138995;-72
2022/05/02 11:23:57;;;;;;;5.80;2.83;;;;;;;18.87;41.51;100945.05;5078552;58;1138957;-72
2022/05/02 11:29:39;;;;;;;7.03;3.72;;;;;;;19.12;42.63;100929.86;4997708;58;1136920;-71
2022/05/02 11:35:12;;;;;;;4.72;2.87;;;;;;;19.49;43.84;100923.59;5154758;56;1137211;-72
2022/05/02 11:40:19;;;;;;;3.57;3.23;;;;;;;19.68;41.67;100914.38;5175966;56;1136928;-72
2022/05/02 11:45:43;;;;;;;12.05;3.17;;;;;;;19.64;41.70;100914.38;5198398;56;1136979;-72
2022/05/02 11:50:54;;;;;;;4.20;2.97;;;;;;;19.75;41.98;100905.97;5147747;56;1141123;-72
2022/05/02 11:56:05;;;;;;;3.25;2.95;;;;;;;19.97;41.79;100893.71;5098417;57;1138922;-72
2022/05/02 12:01:13;;;;;;;7.17;3.22;;;;;;;19.92;39.46;100884.81;5161974;57;1138443;-72
2022/05/02 12:06:21;;;;;;;4.03;2.35;;;;;;;20.09;39.11;100885.63;5120008;57;1138969;-72
2022/05/02 12:11:27;;;;;;;4.72;2.37;;;;;;;20.08;38.79;100869.68;5140515;57;1138991;-72
2022/05/02 12:16:33;;;;;;;3.85;2.95;;;;;;;20.22;41.12;100867.62;5162221;57;1139011;-72
2022/05/02 12:21:48;;;;;;;2.58;2.37;;;;;;;20.29;40.08;100853.34;5137335;57;1139253;-72
2022/05/02 12:26:56;;;;;;;5.33;2.55;;;;;;;20.14;39.59;100860.44;5195404;57;1139244;-72
2022/05/02 12:32:05;;;;;;;8.33;3.25;;;;;;;20.17;40.14;100852.52;5180284;57;1139269;-72
2022/05/02 12:37:26;;;;;;;4.28;2.33;;;;;;;19.90;37.50;100847.06;5180609;57;1139494;-72
2022/05/02 12:42:47;;;;;;;2.72;1.77;;;;;;;19.55;39.09;100839.77;5195723;57;1139296;-73
2022/05/02 12:48:08;;;;;;;4.22;2.60;;;;;;;19.73;38.27;100828.81;5171239;57;1138968;-72
2022/05/02 13:04:25;;;;;;;7.80;2.80;;;;;;;19.66;39.32;100803.69;5110625;58;1138961;-72
2022/05/02 13:09:38;;;;;;;3.62;2.47;;;;;;;20.01;39.54;100801.08;5088602;56;1136898;-72
2022/05/02 13:14:46;;;;;;;4.12;2.80;;;;;;;20.25;38.73;100796.94;5166598;56;1136913;-72
2022/05/02 13:19:52;;;;;;;4.20;2.92;;;;;;;20.22;38.80;100791.07;5195767;57;1137185;-73
2022/05/02 13:25:00;;;;;;;9.60;2.35;;;;;;;20.52;40.38;100789.44;5195681;57;1137040;-72
2022/05/02 13:30:11;;;;;;;2.95;2.12;;;;;;;20.50;37.94;100788.77;5195199;57;1137193;-75
2022/05/02 13:35:22;;;;;;;6.15;2.30;;;;;;;20.49;37.13;100780.38;5170503;57;1137136;-74
2022/05/02 13:41:05;;;;;;;3.95;1.82;;;;;;;20.38;37.02;100778.09;5151568;57;1137269;-74
2022/05/02 13:46:34;;;;;;;3.50;2.23;;;;;;;20.31;36.86;100774.77;5196036;57;1138968;-74
2022/05/02 13:51:45;;;;;;;3.35;2.33;;;;;;;20.45;37.29;100769.67;5173223;56;1139173;-74
2022/05/02 13:57:31;;;;;;;3.52;1.77;;;;;;;20.32;37.25;100762.13;5219594;56;1139272;-75
2022/05/02 14:03:03;;;;;;;7.70;2.10;;;;;;;20.37;37.31;100758.45;5062328;58;1139496;-76
2022/05/02 14:08:07;;;;;;;4.58;2.20;;;;;;;20.30;38.19;100754.28;5041415;58;1139425;-73
2022/05/02 14:13:21;;;;;;;2.58;1.95;;;;;;;20.38;36.67;100752.07;5005829;58;1139697;-74
2022/05/02 14:18:32;;;;;;;3.47;2.58;;;;;;;20.10;37.28;100750.84;4968375;59;1139448;-74
2022/05/02 14:23:51;;;;;;;2.30;1.90;;;;;;;19.89;37.48;100742.03;4968439;59;1139527;-75
2022/05/02 14:29:00;;;;;;;3.27;2.27;;;;;;;19.87;37.93;100740.86;5032031;57;1139023;-75
2022/05/02 14:34:13;;;;;;;4.45;2.50;;;;;;;19.88;37.41;100741.20;4986433;58;1139342;-74
2022/05/02 14:39:20;;;;;;;4.00;2.00;;;;;;;19.84;37.43;100726.98;4908581;59;1139502;-75
2022/05/02 14:44:27;;;;;;;7.90;4.25;;;;;;;19.87;37.92;100725.27;4998730;58;1139259;-76
2022/05/02 14:49:33;;;;;;;5.83;2.40;;;;;;;19.95;38.06;100718.53;5083811;57;1139242;-74
2022/05/02 14:54:40;;;;;;;4.97;1.92;;;;;;;20.04;36.69;100709.41;5046243;58;1137350;-76
2022/05/02 14:59:47;;;;;;;15.95;7.75;;;;;;;20.00;37.11;100706.27;5046399;58;1136852;-75
2022/05/02 15:04:58;;;;;;;2.47;1.65;;;;;;;19.89;36.59;100703.11;5120580;57;1138989;-75
2022/05/02 15:10:17;;;;;;;2.20;1.80;;;;;;;19.79;37.04;100706.52;5178641;56;1137205;-76
2022/05/02 15:15:51;;;;;;;7.45;2.20;;;;;;;19.90;36.13;100688.68;5073339;57;1137128;-75
2022/05/02 15:21:01;;;;;;;2.42;1.80;;;;;;;19.97;36.80;100691.84;5067684;57;1136947;-76
2022/05/02 15:26:08;;;;;;;5.28;2.20;;;;;;;20.07;36.29;100690.27;5154866;56;1136853;-75
2022/05/02 15:36:56;;;;;;;3.10;1.75;;;;;;;20.16;36.99;100682.52;5149906;56;1138912;-76
2022/05/02 15:42:02;;;;;;;9.33;2.83;;;;;;;20.15;35.79;100680.01;5195650;56;1139202;-75
2022/05/02 15:47:14;;;;;;;5.08;2.45;;;;;;;20.18;37.24;100676.44;5102131;57;1139108;-76
2022/05/02 15:52:24;;;;;;;5.00;1.70;;;;;;;20.07;35.80;100663.92;5129068;57;1139122;-75
2022/05/02 15:57:46;;;;;;;6.87;2.52;;;;;;;20.02;36.70;100655.89;5129021;57;1139010;-74
2022/05/02 16:03:08;;;;;;;6.43;2.53;;;;;;;20.05;37.19;100654.70;5129618;57;1139387;-73
2022/05/02 16:13:44;;;;;;;6.28;2.58;;;;;;;20.01;36.44;100656.90;5154435;56;1139201;-76
2022/05/02 16:18:53;;;;;;;8.23;2.73;;;;;;;19.94;37.88;100649.23;5215629;56;1139030;-75
2022/05/02 16:24:01;;;;;;;3.15;2.27;;;;;;;19.80;37.50;100653.17;5215086;56;1138978;-76
2022/05/02 16:29:15;;;;;;;3.62;2.55;;;;;;;19.78;39.13;100648.48;5175186;56;1138984;-74
2022/05/02 16:34:15;;;;;;;4.42;2.58;;;;;;;19.69;38.75;100652.23;5203067;56;1139076;-74
2022/05/02 16:39:21;;;;;;;5.25;2.87;;;;;;;19.44;39.46;100652.78;5046569;58;1139031;-74
2022/05/02 16:44:28;;;;;;;11.18;3.33;;;;;;;19.23;39.45;100657.39;5102709;57;1138982;-76
2022/05/02 16:49:43;;;;;;;13.45;4.67;;;;;;;19.05;39.71;100661.61;5058804;57;1141117;-74
2022/05/02 16:54:49;;;;;;;5.30;2.98;;;;;;;19.03;40.20;100658.77;5103959;57;1141048;-75
2022/05/02 16:59:55;;;;;;;4.62;2.80;;;;;;;19.05;40.27;100653.57;4699427;57;1138802;-75
2022/05/02 17:05:03;;;;;;;6.20;2.45;;;;;;;19.04;40.05;100655.91;4611437;56;1138943;-73
2022/05/02 17:10:09;;;;;;;8.70;4.03;;;;;;;18.78;39.83;100649.42;4642310;55;1148649;-77
2022/05/02 17:15:16;;;;;;;26.27;23.67;;;;;;;18.66;39.86;100646.73;4592413;56;1148878;-76
2022/05/02 17:20:22;;;;;;;504.28;440.26;;;;;;;18.44;39.88;100646.87;4658740;55;1143711;-74
2022/05/02 17:25:29;;;;;;;8.95;7.05;;;;;;;18.16;40.34;100642.34;4696979;55;1261646;-74
2022/05/02 17:30:37;;;;;;;6.78;3.35;;;;;;;18.08;40.42;100650.34;4733001;55;1148400;-74
2022/05/02 17:35:50;;;;;;;8.70;3.33;;;;;;;17.85;40.69;100639.42;4710366;55;1242887;-73
2022/05/02 17:40:56;;;;;;;8.25;3.58;;;;;;;17.94;41.45;100654.98;4461872;58;1138941;-76
2022/05/02 17:46:02;;;;;;;5.58;2.42;;;;;;;17.97;41.63;100657.84;4570102;57;1139059;-74
2022/05/02 17:51:17;;;;;;;11.00;3.50;;;;;;;17.95;41.04;100655.33;4591312;57;1138896;-74
2022/05/02 17:56:23;;;;;;;14.58;11.95;;;;;;;17.81;40.72;100661.31;4591294;57;1141080;-73
2022/05/02 18:01:29;;;;;;;8.33;7.63;;;;;;;17.50;40.49;100659.65;4516127;57;1143295;-75
2022/05/02 18:06:35;;;;;;;5.60;3.25;;;;;;;17.32;40.94;100662.39;4533270;57;1138979;-74
2022/05/02 18:17:33;;;;;;;10.23;8.45;;;;;;;17.06;41.30;100666.92;4727488;55;1148084;-76
2022/05/02 18:22:44;;;;;;;9.43;7.95;;;;;;;17.03;41.65;100674.75;4665697;55;1247523;-74
2022/05/02 18:27:51;;;;;;;12.40;5.35;;;;;;;16.92;41.76;100695.05;4628678;56;1138927;-76
2022/05/02 18:32:59;;;;;;;11.80;4.87;;;;;;;16.75;41.94;100667.37;4663766;55;1141035;-76
2022/05/02 18:38:10;;;;;;;8.60;6.67;;;;;;;16.70;42.42;100679.01;4652407;55;1141115;-72
2022/05/02 18:43:27;;;;;;;11.90;8.80;;;;;;;16.65;42.35;100680.48;4672776;56;1138839;-72
2022/05/02 18:53:58;;;;;;;20.30;5.65;;;;;;;16.67;43.03;100691.33;4635768;56;1186257;-74
2022/05/02 18:59:08;;;;;;;16.87;9.75;;;;;;;16.71;43.13;100694.05;4614868;56;1141199;-75
2022/05/02 19:04:17;;;;;;;21.97;10.08;;;;;;;16.73;43.28;100696.56;4662119;55;1142419;-75
2022/05/02 19:09:27;;;;;;;13.38;8.23;;;;;;;16.79;43.32;100701.30;4731351;55;1150855;-74
2022/05/02 19:14:34;;;;;;;21.33;11.90;;;;;;;16.79;43.48;100699.47;4705110;55;1141104;-75
2022/05/02 19:19:40;;;;;;;26.12;12.23;;;;;;;16.77;43.65;100703.28;4707393;55;1143101;-74
2022/05/02 19:25:09;;;;;;;19.95;10.40;;;;;;;16.74;43.77;100705.76;4659704;55;1143113;-73
2022/05/02 19:30:18;;;;;;;24.27;12.80;;;;;;;16.68;44.00;100710.37;4676289;56;1143012;-74
2022/05/02 19:40:51;;;;;;;25.48;12.96;;;;;;;16.48;44.48;100707.01;4696455;55;1143015;-74
2022/05/02 19:46:00;;;;;;;26.87;11.45;;;;;;;16.39;44.61;100709.23;4681373;55;1142973;-73
2022/05/02 19:51:07;;;;;;;18.70;10.78;;;;;;;16.24;44.71;100705.91;4685411;55;1143092;-74
2022/05/02 19:56:14;;;;;;;25.25;11.90;;;;;;;16.11;45.08;100708.94;4710638;55;1143088;-75
2022/05/02 20:01:20;;;;;;;24.15;12.28;;;;;;;15.93;45.12;100711.56;4698974;55;1143119;-73
2022/05/02 20:06:26;;;;;;;24.50;13.20;;;;;;;15.73;44.96;100705.52;4702110;55;1143062;-74
2022/05/02 20:11:32;;;;;;;33.00;13.50;;;;;;;15.60;45.51;100706.80;4628699;55;1145554;-75
2022/05/02 20:16:38;;;;;;;23.37;10.47;;;;;;;15.51;45.88;100720.99;4666718;55;1143253;-73
2022/05/02 20:21:44;;;;;;;20.80;11.00;;;;;;;15.39;45.90;100718.52;4942807;56;1141008;-72
2022/05/02 20:26:51;;;;;;;16.23;9.87;;;;;;;15.17;46.23;100714.00;5006384;57;1141241;-76
2022/05/02 20:37:20;;;;;;;23.64;10.50;;;;;;;14.87;46.79;100717.70;5036773;57;1139072;-73
2022/05/02 20:42:32;;;;;;;21.53;9.83;;;;;;;14.83;47.22;100716.29;5002599;58;1139182;-73
2022/05/02 20:47:52;;;;;;;25.93;12.07;;;;;;;14.80;47.60;100718.77;5007283;57;1141202;-73
2022/05/02 20:52:59;;;;;;;25.43;13.00;;;;;;;14.78;47.80;100715.41;5139650;55;1143152;-76
2022/05/02 20:58:05;;;;;;;28.97;15.57;;;;;;;14.75;48.02;100711.20;5233934;55;1143143;-76
2022/05/02 21:03:11;;;;;;;43.17;20.00;;;;;;;14.69;48.30;100712.23;5305254;55;1143208;-74
2022/05/02 21:08:23;;;;;;;49.37;19.87;;;;;;;14.40;49.14;100721.55;5307114;55;1143201;-74
2022/05/02 21:13:52;;;;;;;50.33;24.60;;;;;;;14.40;49.14;100721.55;5307330;55;1143165;-72
2022/05/02 21:19:43;;;;;;;44.97;22.40;;;;;;;14.04;49.58;100729.66;5307585;55;1143232;-74
2022/05/02 21:25:05;;;;;;;24.47;13.80;;;;;;;14.04;50.40;100721.68;5308342;55;1143286;-73
2022/05/02 21:30:15;;;;;;;25.07;10.73;;;;;;;13.86;50.48;100720.16;5308598;55;1143405;-73
2022/05/02 21:35:23;;;;;;;17.43;9.57;;;;;;;13.76;50.50;100729.89;5281329;55;1143153;-74
2022/05/02 21:40:35;;;;;;;17.23;8.40;;;;;;;13.71;50.93;100723.67;5219730;56;1141053;-73
2022/05/02 21:45:42;;;;;;;11.63;7.70;;;;;;;13.78;51.22;100722.63;5220071;56;1141412;-76
2022/05/02 21:50:48;;;;;;;16.63;7.23;;;;;;;13.83;51.24;100725.73;5219483;56;1141138;-76
2022/05/02 21:55:53;;;;;;;29.87;12.17;;;;;;;13.83;51.12;100730.20;5219307;56;1141186;-75
2022/05/02 22:00:59;;;;;;;38.97;13.40;;;;;;;13.63;50.75;100730.12;5219454;56;1143157;-72
2022/05/02 22:06:05;;;;;;;30.23;14.93;;;;;;;13.09;51.14;100733.52;5219508;56;1143147;-74
2022/05/02 22:11:11;;;;;;;23.17;13.10;;;;;;;12.82;52.36;100733.55;5219512;56;1141101;-75
2022/05/02 22:16:17;;;;;;;24.40;12.98;;;;;;;12.78;52.80;100733.44;5218616;56;1141116;-72
2022/05/02 22:21:23;;;;;;;45.97;18.13;;;;;;;12.72;53.28;100737.07;5218081;56;1141191;-74
2022/05/02 22:26:29;;;;;;;74.43;33.07;;;;;;;12.80;53.95;100730.17;5218464;56;1141104;-75
2022/05/02 22:31:35;;;;;;;80.45;33.35;;;;;;;12.85;53.93;100723.97;5218116;56;1141167;-74
2022/05/02 22:36:40;;;;;;;60.77;26.60;;;;;;;12.88;53.71;100723.72;5186558;56;1141105;-74
2022/05/02 22:41:46;;;;;;;53.00;23.07;;;;;;;12.84;53.64;100713.48;5096290;56;1141363;-73
2022/05/02 22:46:52;;;;;;;55.50;24.40;;;;;;;12.77;53.71;100717.63;5077701;57;1141096;-72
2022/05/02 22:51:58;;;;;;;64.00;26.00;;;;;;;12.71;53.92;100719.46;5077524;57;1141094;-74
2022/05/02 22:57:05;;;;;;;75.40;33.60;;;;;;;12.63;54.04;100717.46;5074044;57;1141126;-73
2022/05/02 23:02:21;;;;;;;61.10;27.30;;;;;;;12.37;53.81;100716.97;5073307;58;1141033;-74
2022/05/02 23:07:55;;;;;;;79.03;32.80;;;;;;;12.13;54.18;100714.48;5077206;57;1141300;-72
2022/05/02 23:13:03;;;;;;;59.27;27.90;;;;;;;11.97;54.98;100709.58;5077870;57;1142999;-75
2022/05/02 23:18:10;;;;;;;45.28;20.27;;;;;;;12.02;55.78;100711.02;5119538;57;1143158;-74
2022/05/02 23:23:16;;;;;;;52.33;22.70;;;;;;;11.97;55.92;100705.59;5193852;56;1143116;-72
2022/05/02 23:28:23;;;;;;;50.27;26.83;;;;;;;11.88;55.87;100709.48;5221833;56;1143170;-73
2022/05/02 23:33:54;;;;;;;60.27;26.83;;;;;;;11.70;56.01;100711.75;5164566;56;1143166;-74
2022/05/02 23:39:08;;;;;;;52.83;25.00;;;;;;;11.42;56.61;100706.45;5135733;57;1143144;-76
2022/05/02 23:44:36;;;;;;;51.57;26.90;;;;;;;11.31;57.00;100702.94;5135708;57;1143226;-74
2022/05/02 23:49:48;;;;;;;67.50;39.43;;;;;;;11.27;57.61;100703.20;5184142;56;1143164;-75
2022/05/02 23:55:25;;;;;;;39.10;21.27;;;;;;;11.24;58.51;100706.08;5221838;56;1143044;-73
